Time;durP1;ratioP1;P1;durP2;ratioP2;P2;SDS_P1;SDS_P2;PMS_P1;PMS_P2;Temp;Humidity;BMP_temperature;BMP_pressure;BME280_temperature;BME280_humidity;BME280_pressure;Samples;Min_cycle;Max_cycle;Signal;HPM_P1;HPM_P2
2021/06/18 00:00:13;;;;;;;1.27;1.17;;;25.90;99.90;;;;;;5051873;28;20959;-75
2021/06/18 00:02:39;;;;;;;1.30;1.20;;;25.80;99.90;;;;;;5051638;28;20175;-75
2021/06/18 00:05:07;;;;;;;1.10;1.00;;;25.80;99.90;;;;;;5053539;28;20441;-75
2021/06/18 00:07:33;;;;;;;1.60;1.50;;;25.70;99.90;;;;;;5053963;28;20425;-77
2021/06/18 00:09:58;;;;;;;1.73;1.63;;;25.70;99.90;;;;;;5053182;28;20490;-75
2021/06/18 00:12:24;;;;;;;1.00;0.90;;;25.70;99.90;;;;;;5052370;28;20203;-75
2021/06/18 00:14:49;;;;;;;1.43;1.10;;;25.70;99.90;;;;;;5051631;28;20313;-75
2021/06/18 00:17:15;;;;;;;1.33;1.23;;;25.70;99.90;;;;;;5052839;28;20203;-75
2021/06/18 00:19:40;;;;;;;2.13;1.63;;;25.70;99.90;;;;;;5050467;28;20213;-75
2021/06/18 00:22:06;;;;;;;1.20;0.80;;;25.70;99.90;;;;;;5051785;28;20191;-75
2021/06/18 00:24:32;;;;;;;1.67;1.57;;;25.60;99.90;;;;;;5052528;28;20253;-75
2021/06/18 00:26:57;;;;;;;2.37;2.00;;;25.60;99.90;;;;;;5052257;28;20257;-75
2021/06/18 00:29:23;;;;;;;2.93;1.50;;;25.60;99.90;;;;;;5053233;28;20203;-75
2021/06/18 00:31:48;;;;;;;1.23;1.13;;;25.60;99.90;;;;;;5053372;28;20214;-75
2021/06/18 00:34:14;;;;;;;2.47;1.40;;;25.60;99.90;;;;;;5052944;28;20571;-75
2021/06/18 00:36:39;;;;;;;1.57;1.47;;;25.60;99.90;;;;;;5057021;28;20219;-75
2021/06/18 00:39:05;;;;;;;1.50;1.20;;;25.60;99.90;;;;;;5072069;28;20584;-75
2021/06/18 00:41:31;;;;;;;3.90;2.13;;;25.60;99.90;;;;;;5053028;28;20662;-75
2021/06/18 00:43:56;;;;;;;2.50;2.30;;;25.60;99.90;;;;;;5052885;28;20206;-75
2021/06/18 00:46:22;;;;;;;1.17;1.07;;;25.60;99.90;;;;;;5052847;28;20191;-75
2021/06/18 00:48:50;;;;;;;1.00;0.90;;;25.60;99.90;;;;;;5052856;28;20213;-75
2021/06/18 00:51:15;;;;;;;1.20;1.10;;;25.60;99.90;;;;;;5052549;28;20222;-75
2021/06/18 00:53:41;;;;;;;2.23;2.13;;;25.60;99.90;;;;;;5052644;28;20445;-75
2021/06/18 00:56:07;;;;;;;1.47;1.37;;;25.50;99.90;;;;;;5052532;28;20178;-75
2021/06/18 00:58:32;;;;;;;1.80;1.43;;;25.50;99.90;;;;;;5052923;28;20631;-75
2021/06/18 01:00:58;;;;;;;1.30;1.03;;;25.40;99.90;;;;;;5052748;28;20245;-74
2021/06/18 01:03:24;;;;;;;1.53;1.43;;;25.40;99.90;;;;;;5052723;28;20225;-75
2021/06/18 01:05:51;;;;;;;1.13;1.03;;;25.40;99.90;;;;;;5052124;28;20167;-75
2021/06/18 01:08:27;;;;;;;1.03;0.93;;;25.30;99.90;;;;;;5052456;28;20641;-75
2021/06/18 01:11:07;;;;;;;3.47;1.40;;;25.30;99.90;;;;;;5052407;28;20409;-75
2021/06/18 01:13:55;;;;;;;1.17;1.07;;;25.20;99.90;;;;;;5051118;28;20420;-75
2021/06/18 01:16:32;;;;;;;2.17;1.60;;;25.20;99.90;;;;;;5051574;28;20973;-75
2021/06/18 01:19:11;;;;;;;1.83;1.73;;;25.20;99.90;;;;;;5051145;28;20832;-75
2021/06/18 01:21:44;;;;;;;2.90;2.70;;;25.10;99.90;;;;;;5051885;28;20972;-75
2021/06/18 01:24:34;;;;;;;1.83;1.60;;;25.10;99.90;;;;;;5050852;28;20957;-75
2021/06/18 01:27:10;;;;;;;1.30;1.20;;;25.10;99.90;;;;;;5032125;28;20425;-75
2021/06/18 01:29:40;;;;;;;2.73;1.83;;;25.00;99.90;;;;;;5052087;28;20917;-75
2021/06/18 01:32:12;;;;;;;3.00;2.47;;;25.00;99.90;;;;;;5052064;28;22140;-75
2021/06/18 01:34:38;;;;;;;1.00;0.87;;;24.90;99.90;;;;;;5051968;28;20508;-75
2021/06/18 01:37:16;;;;;;;4.70;2.33;;;24.90;99.90;;;;;;5051280;28;20444;-75
2021/06/18 01:39:44;;;;;;;1.67;1.57;;;24.90;99.90;;;;;;5051857;28;20448;-75
2021/06/18 01:42:11;;;;;;;1.10;1.00;;;24.90;99.90;;;;;;5050588;28;20461;-75
2021/06/18 01:44:39;;;;;;;1.30;1.10;;;24.80;99.90;;;;;;5052124;28;20773;-75
2021/06/18 01:47:07;;;;;;;1.93;1.17;;;24.80;99.90;;;;;;5051746;28;20425;-75
2021/06/18 01:49:35;;;;;;;2.93;1.57;;;24.80;99.90;;;;;;5051592;28;20436;-75
2021/06/18 01:52:06;;;;;;;1.17;1.07;;;24.80;99.90;;;;;;5050641;28;20456;-75
2021/06/18 01:54:33;;;;;;;0.90;0.80;;;24.80;99.90;;;;;;5051498;28;20427;-75
2021/06/18 01:57:00;;;;;;;1.50;1.37;;;24.70;99.90;;;;;;5049908;28;20444;-75
2021/06/18 01:59:29;;;;;;;1.10;0.97;;;24.70;99.90;;;;;;5051765;28;20435;-75
2021/06/18 02:01:55;;;;;;;1.63;1.50;;;24.70;99.90;;;;;;5051903;28;20401;-75
2021/06/18 02:04:21;;;;;;;1.73;1.27;;;24.70;99.90;;;;;;5050106;28;20406;-75
2021/06/18 02:06:49;;;;;;;1.53;1.43;;;24.70;99.90;;;;;;5051368;28;20543;-75
2021/06/18 02:09:16;;;;;;;1.23;0.97;;;24.60;99.90;;;;;;5050369;28;20262;-75
2021/06/18 02:11:43;;;;;;;4.23;2.70;;;24.60;99.90;;;;;;5051344;28;20478;-75
2021/06/18 02:14:20;;;;;;;1.63;0.83;;;24.60;99.90;;;;;;5051593;28;20894;-75
2021/06/18 02:16:51;;;;;;;1.33;1.23;;;24.60;99.90;;;;;;5050963;28;20429;-75
2021/06/18 02:19:18;;;;;;;2.13;1.70;;;24.60;99.90;;;;;;5051578;28;20503;-76
2021/06/18 02:21:47;;;;;;;2.10;1.53;;;24.50;99.90;;;;;;5051728;28;20455;-76
2021/06/18 02:24:15;;;;;;;1.63;1.17;;;24.50;99.90;;;;;;5051383;28;20910;-76
2021/06/18 02:26:41;;;;;;;2.10;1.20;;;24.50;99.90;;;;;;5044553;28;20433;-76
2021/06/18 02:29:08;;;;;;;2.20;1.67;;;24.50;99.90;;;;;;5055483;28;20417;-76
2021/06/18 02:31:36;;;;;;;1.30;1.20;;;24.40;99.90;;;;;;5055051;28;20548;-76
2021/06/18 02:34:02;;;;;;;3.00;1.47;;;24.40;99.90;;;;;;5054182;28;20441;-76
2021/06/18 02:36:27;;;;;;;1.10;1.00;;;24.40;99.90;;;;;;5055283;28;20833;-75
2021/06/18 02:38:53;;;;;;;1.70;1.53;;;24.40;99.90;;;;;;5053913;28;20225;-76
2021/06/18 02:41:19;;;;;;;1.33;1.23;;;24.40;99.90;;;;;;5055074;28;20221;-75
2021/06/18 02:43:44;;;;;;;2.47;1.70;;;24.30;99.90;;;;;;5055179;28;20177;-76
2021/06/18 02:46:29;;;;;;;1.40;1.17;;;24.30;99.90;;;;;;5055110;28;20409;-76
2021/06/18 02:48:59;;;;;;;2.03;1.87;;;24.30;99.90;;;;;;5087274;28;20274;-75
2021/06/18 02:51:30;;;;;;;1.03;0.93;;;24.30;99.90;;;;;;5054846;28;20449;-76
2021/06/18 02:54:31;;;;;;;1.37;1.10;;;24.30;99.90;;;;;;5045636;28;20500;-76
2021/06/18 02:57:01;;;;;;;1.40;1.30;;;24.30;99.90;;;;;;5043178;28;20441;-76
2021/06/18 02:59:44;;;;;;;1.40;1.10;;;24.20;99.90;;;;;;5054931;28;20414;-75
2021/06/18 03:02:14;;;;;;;1.10;1.00;;;24.20;99.90;;;;;;5052115;28;20848;-75
2021/06/18 03:04:43;;;;;;;1.17;0.80;;;24.20;99.90;;;;;;5054750;28;20452;-75
2021/06/18 03:07:15;;;;;;;1.40;1.30;;;24.10;99.90;;;;;;5054717;28;20926;-76
2021/06/18 03:09:51;;;;;;;1.00;0.90;;;24.10;99.90;;;;;;5054721;28;20453;-75
2021/06/18 03:12:22;;;;;;;0.90;0.80;;;24.10;99.90;;;;;;5054884;28;20441;-76
2021/06/18 03:14:48;;;;;;;5.53;1.57;;;24.10;99.90;;;;;;5054473;28;20421;-75
2021/06/18 03:17:18;;;;;;;1.27;1.17;;;24.10;99.90;;;;;;5054012;28;20437;-76
2021/06/18 03:19:46;;;;;;;1.30;1.20;;;24.10;99.90;;;;;;5054845;28;20492;-76
2021/06/18 03:22:15;;;;;;;2.90;2.70;;;24.10;99.90;;;;;;5053264;28;20421;-76
2021/06/18 03:24:42;;;;;;;1.47;0.90;;;24.10;99.90;;;;;;5054188;28;20421;-76
2021/06/18 03:27:09;;;;;;;1.10;1.00;;;24.10;99.90;;;;;;5054092;28;20587;-75
2021/06/18 03:29:37;;;;;;;1.37;1.27;;;24.10;99.90;;;;;;5054418;28;20429;-76
2021/06/18 03:32:04;;;;;;;2.07;1.57;;;24.10;99.90;;;;;;5052396;28;20461;-76
2021/06/18 03:34:32;;;;;;;0.90;0.73;;;24.10;99.90;;;;;;5054206;28;20421;-75
2021/06/18 03:36:59;;;;;;;2.00;1.90;;;24.20;99.90;;;;;;5052879;28;20440;-75
2021/06/18 03:39:26;;;;;;;2.07;1.40;;;24.10;99.90;;;;;;5041170;28;20504;-76
2021/06/18 03:41:51;;;;;;;1.57;1.30;;;24.10;99.90;;;;;;5053470;28;20502;-76
2021/06/18 03:44:19;;;;;;;1.37;1.27;;;24.10;99.90;;;;;;5054369;28;20436;-75
2021/06/18 03:46:46;;;;;;;3.00;1.50;;;24.10;99.90;;;;;;5053397;28;20187;-76
2021/06/18 03:49:12;;;;;;;1.40;1.30;;;24.20;99.90;;;;;;5053707;28;20440;-76
2021/06/18 03:51:38;;;;;;;1.63;1.50;;;24.20;99.90;;;;;;5053467;28;20453;-75
2021/06/18 03:54:05;;;;;;;1.80;1.70;;;24.20;99.90;;;;;;5053820;28;20778;-76
2021/06/18 03:56:31;;;;;;;1.70;1.60;;;24.20;99.90;;;;;;5053356;28;20183;-75
2021/06/18 03:58:58;;;;;;;1.10;0.97;;;24.20;99.90;;;;;;5054069;28;20405;-75
2021/06/18 04:01:26;;;;;;;2.37;2.27;;;24.20;99.90;;;;;;5054024;28;20412;-76
2021/06/18 04:03:53;;;;;;;1.90;1.80;;;24.30;99.90;;;;;;5053271;28;20456;-76
2021/06/18 04:06:20;;;;;;;3.93;1.23;;;24.30;99.90;;;;;;5053415;28;20417;-75
2021/06/18 04:08:46;;;;;;;2.03;1.83;;;24.30;99.90;;;;;;5053428;28;20421;-76
2021/06/18 04:11:13;;;;;;;1.00;0.83;;;24.30;99.90;;;;;;5053813;28;20410;-76
2021/06/18 04:13:40;;;;;;;1.83;1.60;;;24.30;99.90;;;;;;5053677;28;20495;-76
2021/06/18 04:16:10;;;;;;;1.97;1.80;;;24.40;99.90;;;;;;5052886;28;20413;-76
2021/06/18 04:18:39;;;;;;;1.57;1.47;;;24.40;99.90;;;;;;5053588;28;20803;-76
2021/06/18 04:21:09;;;;;;;1.10;1.00;;;24.40;99.90;;;;;;5051762;28;20462;-75
2021/06/18 04:23:34;;;;;;;1.80;1.00;;;24.50;99.90;;;;;;5053175;28;20543;-76
2021/06/18 04:26:01;;;;;;;1.47;1.37;;;24.50;99.90;;;;;;5052907;28;20898;-77
2021/06/18 04:28:27;;;;;;;1.60;1.50;;;24.50;99.90;;;;;;5053759;28;20198;-76
2021/06/18 04:30:53;;;;;;;0.90;0.80;;;24.60;99.90;;;;;;5053701;28;20406;-77
2021/06/18 04:33:19;;;;;;;2.23;1.87;;;24.60;99.90;;;;;;5053454;28;20515;-75
2021/06/18 04:35:45;;;;;;;1.40;1.30;;;24.60;99.90;;;;;;5053123;28;20574;-75
2021/06/18 04:38:10;;;;;;;1.83;1.63;;;24.70;99.90;;;;;;5052907;28;20782;-76
2021/06/18 04:40:36;;;;;;;1.30;1.20;;;24.80;99.90;;;;;;5053035;28;20410;-75
2021/06/18 04:43:02;;;;;;;1.10;1.00;;;24.80;99.90;;;;;;5053032;28;20185;-75
2021/06/18 04:45:28;;;;;;;2.07;1.93;;;24.70;99.90;;;;;;5052750;28;20504;-77
2021/06/18 04:47:55;;;;;;;2.17;1.83;;;24.80;99.90;;;;;;5052757;28;20446;-77
2021/06/18 04:50:21;;;;;;;1.40;1.30;;;24.90;99.90;;;;;;5052825;28;20206;-77
2021/06/18 04:52:47;;;;;;;1.10;1.00;;;24.90;99.90;;;;;;5053696;28;20496;-76
2021/06/18 04:55:17;;;;;;;2.83;2.10;;;25.00;99.90;;;;;;5052741;28;20191;-76
2021/06/18 04:57:44;;;;;;;2.37;2.00;;;25.10;99.90;;;;;;5053852;28;20269;-76
2021/06/18 05:00:10;;;;;;;1.27;1.17;;;25.10;99.90;;;;;;5054749;28;20546;-78
2021/06/18 05:02:36;;;;;;;3.83;1.47;;;25.20;99.90;;;;;;5053750;28;20425;-76
2021/06/18 05:05:02;;;;;;;1.83;1.70;;;25.20;99.90;;;;;;5053280;28;20406;-76
2021/06/18 05:07:28;;;;;;;1.97;1.40;;;25.30;99.90;;;;;;5053756;28;20716;-75
2021/06/18 05:09:53;;;;;;;2.23;1.30;;;25.30;99.90;;;;;;5054764;28;20500;-76
2021/06/18 05:12:19;;;;;;;1.27;1.17;;;25.40;99.90;;;;;;5055169;28;20280;-76
2021/06/18 05:14:44;;;;;;;1.40;1.30;;;25.40;99.90;;;;;;5054855;28;20163;-76
2021/06/18 05:17:10;;;;;;;1.57;1.47;;;25.60;99.90;;;;;;5053471;28;20197;-76
2021/06/18 05:19:35;;;;;;;1.30;1.20;;;25.60;99.90;;;;;;5053598;28;20187;-77
2021/06/18 05:22:01;;;;;;;1.63;1.43;;;25.70;99.90;;;;;;5050945;28;20656;-77
2021/06/18 05:24:27;;;;;;;4.30;2.87;;;25.80;99.90;;;;;;5083577;28;20194;-77
2021/06/18 05:26:53;;;;;;;4.37;2.20;;;25.80;99.90;;;;;;5053632;28;20432;-76
2021/06/18 05:29:18;;;;;;;1.13;1.03;;;25.90;99.90;;;;;;5053003;28;20194;-75
2021/06/18 05:31:44;;;;;;;1.80;1.70;;;26.00;99.90;;;;;;5052150;28;20672;-76
2021/06/18 05:34:09;;;;;;;1.20;1.10;;;26.10;99.90;;;;;;5052137;28;20596;-76
2021/06/18 05:36:35;;;;;;;2.17;1.97;;;26.20;99.90;;;;;;5051735;28;20556;-76
2021/06/18 05:39:00;;;;;;;1.63;1.50;;;26.30;99.90;;;;;;5052823;28;20206;-77
2021/06/18 05:41:26;;;;;;;1.30;1.17;;;26.30;99.90;;;;;;5052179;28;20174;-77
2021/06/18 05:43:52;;;;;;;1.83;1.73;;;26.40;99.90;;;;;;5053815;28;20633;-77
2021/06/18 05:46:18;;;;;;;1.87;1.63;;;26.50;99.90;;;;;;5051869;28;20175;-77
2021/06/18 05:48:43;;;;;;;2.33;1.67;;;26.50;99.90;;;;;;5051910;28;20240;-76
2021/06/18 05:51:09;;;;;;;1.70;1.60;;;26.70;99.90;;;;;;5053413;28;20186;-76
2021/06/18 05:53:34;;;;;;;1.50;1.40;;;26.70;99.90;;;;;;5051778;28;20163;-76
2021/06/18 05:56:00;;;;;;;1.87;1.77;;;26.70;99.90;;;;;;5053472;28;20675;-76
2021/06/18 05:58:26;;;;;;;2.23;2.10;;;26.80;99.90;;;;;;5051531;28;20179;-76
2021/06/18 06:00:51;;;;;;;1.53;1.43;;;26.90;99.90;;;;;;5051658;28;20171;-76
2021/06/18 06:03:17;;;;;;;3.37;2.03;;;27.00;99.90;;;;;;5053728;28;20174;-78
2021/06/18 06:05:42;;;;;;;2.43;1.83;;;27.00;99.90;;;;;;5054369;28;20739;-76
2021/06/18 06:08:12;;;;;;;1.20;1.10;;;27.00;99.90;;;;;;5052744;28;20191;-76
2021/06/18 06:10:38;;;;;;;1.40;1.30;;;27.20;99.90;;;;;;5052966;28;20195;-76
2021/06/18 06:13:04;;;;;;;1.47;1.37;;;27.40;99.90;;;;;;5053372;28;20821;-77
2021/06/18 06:15:30;;;;;;;2.40;2.20;;;27.50;99.90;;;;;;5052853;28;20452;-76
2021/06/18 06:17:55;;;;;;;1.83;1.33;;;27.60;99.90;;;;;;5052709;28;20469;-76
2021/06/18 06:20:21;;;;;;;1.67;1.53;;;27.80;99.90;;;;;;5053547;28;20648;-77
2021/06/18 06:22:47;;;;;;;1.33;1.17;;;27.80;99.90;;;;;;5052360;28;20171;-76
2021/06/18 06:25:13;;;;;;;2.37;1.80;;;27.90;99.90;;;;;;5051620;28;20551;-77
2021/06/18 06:27:39;;;;;;;2.23;1.63;;;28.00;99.90;;;;;;5051983;28;20190;-77
2021/06/18 06:30:05;;;;;;;1.87;1.77;;;28.20;99.90;;;;;;5052943;28;20783;-76
2021/06/18 06:32:31;;;;;;;1.43;1.33;;;28.40;99.90;;;;;;5052882;28;20806;-76
2021/06/18 06:34:57;;;;;;;3.20;2.90;;;28.60;99.90;;;;;;5054008;28;20397;-77
2021/06/18 06:37:24;;;;;;;1.60;1.30;;;28.80;99.90;;;;;;5053624;28;20190;-77
2021/06/18 06:39:49;;;;;;;2.27;2.07;;;29.00;99.90;;;;;;5052444;28;20451;-76
2021/06/18 06:42:15;;;;;;;2.10;1.90;;;29.10;99.90;;;;;;5052281;28;20850;-76
2021/06/18 06:44:41;;;;;;;1.67;1.50;;;29.30;99.90;;;;;;5050587;28;20189;-76
2021/06/18 06:47:07;;;;;;;2.07;1.87;;;29.60;99.90;;;;;;5051594;28;20199;-76
2021/06/18 06:49:32;;;;;;;1.50;1.23;;;29.80;99.90;;;;;;5053258;28;20448;-76
2021/06/18 06:51:58;;;;;;;1.87;1.70;;;30.00;99.90;;;;;;5053032;28;20282;-76
2021/06/18 06:54:26;;;;;;;1.30;1.13;;;30.20;99.90;;;;;;5052090;28;20177;-77
2021/06/18 06:56:56;;;;;;;2.50;1.50;;;30.30;99.90;;;;;;5050213;28;20618;-77
2021/06/18 06:59:22;;;;;;;1.37;1.27;;;30.40;99.90;;;;;;5051747;28;20887;-77
2021/06/18 07:01:47;;;;;;;3.30;3.10;;;30.50;99.90;;;;;;5051396;28;20420;-77
2021/06/18 07:04:13;;;;;;;2.77;1.70;;;30.40;99.90;;;;;;5051398;28;20417;-77
2021/06/18 07:06:39;;;;;;;1.87;1.77;;;30.30;99.90;;;;;;5052605;28;20195;-77
2021/06/18 07:09:08;;;;;;;1.63;1.40;;;30.30;99.90;;;;;;5053255;28;20163;-77
2021/06/18 07:11:33;;;;;;;3.00;1.90;;;30.20;99.90;;;;;;5051406;28;20912;-76
2021/06/18 07:13:59;;;;;;;4.40;4.10;;;30.20;99.90;;;;;;5054657;28;20451;-76
2021/06/18 07:16:25;;;;;;;4.47;2.03;;;30.20;99.90;;;;;;5054648;28;20187;-76
2021/06/18 07:18:52;;;;;;;1.87;1.63;;;30.10;99.90;;;;;;5054912;28;20220;-76
2021/06/18 07:21:17;;;;;;;2.87;1.70;;;30.10;99.90;;;;;;5054391;28;20441;-77
2021/06/18 07:23:43;;;;;;;1.77;1.67;;;30.00;99.90;;;;;;5055113;28;20440;-76
2021/06/18 07:26:08;;;;;;;2.60;1.93;;;29.90;99.90;;;;;;5054230;28;20167;-77
2021/06/18 07:28:34;;;;;;;1.40;1.30;;;29.90;99.90;;;;;;5054767;28;20543;-76
2021/06/18 07:31:00;;;;;;;1.67;1.57;;;29.80;99.90;;;;;;5056205;28;20181;-76
2021/06/18 07:33:25;;;;;;;3.27;2.20;;;29.80;99.90;;;;;;5056508;28;20282;-77
2021/06/18 07:35:51;;;;;;;2.60;1.73;;;29.60;99.90;;;;;;5055627;28;20175;-76
2021/06/18 07:38:16;;;;;;;2.03;1.37;;;29.50;99.90;;;;;;5054737;28;20215;-77
2021/06/18 07:40:42;;;;;;;2.07;1.97;;;29.40;99.90;;;;;;5053947;28;20182;-77
2021/06/18 07:43:08;;;;;;;2.17;1.97;;;29.30;99.90;;;;;;5056682;28;20175;-77
2021/06/18 07:45:34;;;;;;;2.33;2.13;;;29.20;99.90;;;;;;5056254;28;20178;-77
2021/06/18 07:48:00;;;;;;;3.00;2.33;;;29.10;99.90;;;;;;5054908;28;20807;-78
2021/06/18 07:50:26;;;;;;;2.57;2.20;;;29.00;99.90;;;;;;5056057;28;20536;-77
2021/06/18 07:52:51;;;;;;;1.77;1.60;;;29.00;99.90;;;;;;5055417;28;20197;-76
2021/06/18 07:55:21;;;;;;;2.50;2.20;;;28.90;99.90;;;;;;5056005;28;20221;-76
2021/06/18 07:57:46;;;;;;;4.67;2.97;;;28.80;99.90;;;;;;5054390;28;20191;-76
2021/06/18 08:00:13;;;;;;;3.47;3.17;;;28.70;99.90;;;;;;5054576;28;20420;-76
2021/06/18 08:02:39;;;;;;;2.20;2.00;;;28.60;99.90;;;;;;5053966;28;20812;-76
2021/06/18 08:05:06;;;;;;;1.93;1.83;;;28.50;99.90;;;;;;5053221;28;20801;-76
2021/06/18 08:07:31;;;;;;;3.40;2.00;;;28.50;99.90;;;;;;5053665;28;20441;-76
2021/06/18 08:09:57;;;;;;;4.27;3.37;;;28.40;99.90;;;;;;5054138;28;20420;-77
2021/06/18 08:12:23;;;;;;;2.20;1.90;;;28.40;99.90;;;;;;5054862;28;20191;-77
2021/06/18 08:14:49;;;;;;;2.47;2.27;;;28.40;99.90;;;;;;5053631;28;20217;-77
2021/06/18 08:17:15;;;;;;;2.33;2.03;;;28.40;99.90;;;;;;5053419;28;20202;-77
2021/06/18 08:19:41;;;;;;;2.17;2.03;;;28.60;99.90;;;;;;5053639;28;20426;-77
2021/06/18 08:22:07;;;;;;;2.37;2.03;;;28.70;99.90;;;;;;5053690;28;20183;-77
2021/06/18 08:24:33;;;;;;;2.43;1.53;;;28.90;99.90;;;;;;5052943;28;20171;-76
2021/06/18 08:27:00;;;;;;;2.80;2.23;;;29.00;99.90;;;;;;5053208;28;20202;-77
2021/06/18 08:29:25;;;;;;;2.03;1.83;;;29.20;99.90;;;;;;5053388;28;20798;-77
2021/06/18 08:31:51;;;;;;;2.00;1.90;;;29.50;99.90;;;;;;5054521;28;20456;-77
2021/06/18 08:34:17;;;;;;;3.90;1.80;;;29.70;99.90;;;;;;5056418;28;20670;-78
2021/06/18 08:36:43;;;;;;;2.20;1.87;;;29.80;99.90;;;;;;5055403;28;20197;-77
2021/06/18 08:39:09;;;;;;;2.47;2.27;;;30.00;99.90;;;;;;5056678;28;20158;-77
2021/06/18 08:41:35;;;;;;;2.57;1.70;;;30.10;99.90;;;;;;5055403;28;20413;-76
2021/06/18 08:44:00;;;;;;;2.23;2.00;;;30.20;99.90;;;;;;5052816;28;20186;-76
2021/06/18 08:46:26;;;;;;;1.40;1.20;;;30.40;99.90;;;;;;5053605;28;20441;-76
2021/06/18 08:48:52;;;;;;;1.67;1.53;;;30.60;99.90;;;;;;5053192;28;20194;-77
2021/06/18 08:51:19;;;;;;;2.20;2.10;;;30.70;99.90;;;;;;5061245;28;20212;-75
2021/06/18 08:53:46;;;;;;;2.00;1.73;;;30.70;99.90;;;;;;5052644;28;20309;-76
2021/06/18 08:56:11;;;;;;;2.20;2.07;;;30.70;99.90;;;;;;5052318;28;20428;-77
2021/06/18 08:58:37;;;;;;;2.97;2.77;;;30.70;99.90;;;;;;5052744;28;20417;-76
2021/06/18 09:01:04;;;;;;;2.63;2.17;;;30.60;99.90;;;;;;5052887;28;20163;-76
2021/06/18 09:03:37;;;;;;;1.93;1.53;;;30.60;99.90;;;;;;5052442;28;20236;-76
2021/06/18 09:06:24;;;;;;;2.27;1.70;;;30.70;99.90;;;;;;5050909;28;20414;-76
2021/06/18 09:09:19;;;;;;;4.30;1.60;;;30.80;99.90;;;;;;5054585;28;20471;-76
2021/06/18 09:11:48;;;;;;;2.50;2.10;;;31.00;99.90;;;;;;5054338;28;20460;-77
2021/06/18 09:14:17;;;;;;;1.70;1.60;;;31.20;99.90;;;;;;5055147;28;20441;-76
2021/06/18 09:17:00;;;;;;;1.73;1.63;;;31.60;99.90;;;;;;5051867;28;20437;-77
2021/06/18 09:19:26;;;;;;;2.60;2.17;;;32.00;99.90;;;;;;5052637;28;20397;-77
2021/06/18 09:22:00;;;;;;;2.40;2.30;;;32.20;99.90;;;;;;5052482;28;20486;-76
2021/06/18 09:24:31;;;;;;;2.20;2.00;;;32.50;99.90;;;;;;5054685;28;20178;-77
2021/06/18 09:26:57;;;;;;;2.47;2.27;;;32.60;99.90;;;;;;5052092;28;20854;-77
2021/06/18 09:29:24;;;;;;;1.90;1.80;;;32.70;99.90;;;;;;5053884;28;20823;-78
2021/06/18 09:31:49;;;;;;;3.17;2.87;;;32.60;99.90;;;;;;5056598;28;20449;-77
2021/06/18 09:37:37;;;;;;;2.47;2.27;;;33.20;99.90;;;;;;5056281;28;20232;-77
2021/06/18 09:40:08;;;;;;;2.30;2.20;;;33.80;99.90;;;;;;5055233;28;20467;-78
2021/06/18 09:42:46;;;;;;;1.67;1.57;;;34.40;99.90;;;;;;5055415;28;20735;-78
2021/06/18 09:45:15;;;;;;;1.57;1.47;;;34.70;99.90;;;;;;5053665;28;20409;-77
2021/06/18 09:47:41;;;;;;;2.30;2.10;;;35.00;99.90;;;;;;5053811;28;20465;-78
2021/06/18 09:50:15;;;;;;;2.20;1.80;;;35.20;99.90;;;;;;5054678;28;20429;-75
2021/06/18 09:52:42;;;;;;;1.67;1.57;;;35.30;99.90;;;;;;5052552;28;20451;-78
2021/06/18 09:55:09;;;;;;;2.13;2.03;;;35.30;99.90;;;;;;5054361;28;20397;-78
2021/06/18 09:57:41;;;;;;;1.73;1.63;;;35.20;99.90;;;;;;5053030;28;20457;-77
2021/06/18 10:00:11;;;;;;;2.37;2.23;;;35.20;99.90;;;;;;5054782;28;20409;-77
2021/06/18 10:02:47;;;;;;;1.77;1.47;;;35.10;99.90;;;;;;5054368;28;20386;-77
2021/06/18 10:05:18;;;;;;;1.50;1.40;;;35.10;99.90;;;;;;5051808;28;20421;-77
2021/06/18 10:07:46;;;;;;;1.63;1.50;;;35.30;99.90;;;;;;5050905;28;20452;-77
2021/06/18 10:10:13;;;;;;;2.03;1.83;;;35.60;99.90;;;;;;5053708;28;20420;-78
2021/06/18 10:12:39;;;;;;;5.23;2.60;;;36.00;99.90;;;;;;5053946;28;20516;-77
2021/06/18 10:15:10;;;;;;;2.10;1.90;;;36.10;94.50;;;;;;5052826;28;20520;-77
2021/06/18 10:17:39;;;;;;;3.20;3.00;;;36.50;97.90;;;;;;5060170;28;20444;-79
2021/06/18 10:20:32;;;;;;;1.20;1.10;;;36.70;93.50;;;;;;5055844;28;20432;-79
2021/06/18 10:23:14;;;;;;;1.20;1.10;;;36.90;74.50;;;;;;5043468;28;20511;-78
2021/06/18 10:25:54;;;;;;;1.50;1.23;;;37.10;69.70;;;;;;5049769;28;20429;-79
2021/06/18 10:28:24;;;;;;;1.40;1.30;;;37.60;75.00;;;;;;5045684;28;20868;-82
2021/06/18 10:30:55;;;;;;;1.43;1.33;;;37.80;70.20;;;;;;5055698;28;20471;-81
2021/06/18 10:33:29;;;;;;;1.37;1.27;;;38.10;71.90;;;;;;5054565;28;20807;-81
2021/06/18 10:36:00;;;;;;;1.87;1.30;;;38.40;68.40;;;;;;5057088;28;20408;-79
2021/06/18 10:38:43;;;;;;;1.60;1.30;;;38.60;65.90;;;;;;5055635;28;20455;-78
2021/06/18 10:41:18;;;;;;;1.27;1.17;;;39.10;70.10;;;;;;5053245;28;20405;-79
2021/06/18 10:43:49;;;;;;;1.77;1.40;;;39.10;66.90;;;;;;5054120;28;20423;-77
2021/06/18 10:46:17;;;;;;;1.43;1.33;;;39.20;58.90;;;;;;5055338;28;20431;-79
2021/06/18 10:48:46;;;;;;;1.90;1.80;;;39.30;56.70;;;;;;5059622;28;20409;-78
2021/06/18 10:51:27;;;;;;;1.50;1.40;;;39.40;56.80;;;;;;5058692;28;20823;-79
2021/06/18 10:53:59;;;;;;;1.97;1.77;;;39.80;61.60;;;;;;5060028;28;20416;-82
2021/06/18 10:56:47;;;;;;;13.00;6.50;;;40.10;53.80;;;;;;5057902;28;20489;-81
2021/06/18 10:59:13;;;;;;;1.53;1.40;;;40.30;55.80;;;;;;5057076;28;20416;-79
2021/06/18 11:01:40;;;;;;;1.90;1.80;;;40.90;54.70;;;;;;5059425;28;20436;-81
2021/06/18 11:04:07;;;;;;;1.37;1.27;;;40.40;53.70;;;;;;5060999;28;20405;-80
2021/06/18 11:06:47;;;;;;;1.67;1.57;;;40.50;58.20;;;;;;5057252;28;20469;-80
2021/06/18 11:09:33;;;;;;;1.57;1.47;;;40.70;58.60;;;;;;5057730;28;20478;-78
2021/06/18 11:12:18;;;;;;;1.90;1.80;;;41.10;62.10;;;;;;5056557;28;20453;-79
2021/06/18 11:14:44;;;;;;;1.90;1.80;;;41.00;58.10;;;;;;5042258;28;20479;-79
2021/06/18 11:17:45;;;;;;;2.73;2.57;;;40.80;55.40;;;;;;5038656;28;20417;-77
2021/06/18 11:20:12;;;;;;;1.50;1.40;;;40.20;54.70;;;;;;5054433;28;20174;-79
2021/06/18 11:22:53;;;;;;;1.97;1.80;;;40.40;57.80;;;;;;5058002;28;20917;-80
2021/06/18 11:25:52;;;;;;;1.53;1.43;;;40.30;54.00;;;;;;5058373;28;20855;-79
2021/06/18 11:28:21;;;;;;;1.60;1.50;;;40.10;54.10;;;;;;5058287;28;20461;-79
2021/06/18 11:31:02;;;;;;;2.80;2.60;;;39.80;54.60;;;;;;5059024;28;20753;-78
2021/06/18 11:33:39;;;;;;;1.83;1.30;;;39.60;55.20;;;;;;5059238;28;20445;-79
2021/06/18 11:36:24;;;;;;;1.80;1.70;;;39.60;54.60;;;;;;5038379;28;20560;-78
2021/06/18 11:38:54;;;;;;;2.00;1.77;;;39.80;54.50;;;;;;5038522;28;20390;-82
2021/06/18 11:41:23;;;;;;;4.70;3.37;;;39.90;56.10;;;;;;5049493;28;20461;-78
2021/06/18 11:43:51;;;;;;;1.93;1.60;;;39.70;54.30;;;;;;5055520;28;20417;-78
2021/06/18 11:46:24;;;;;;;1.43;1.33;;;39.60;54.90;;;;;;5049521;28;20415;-79
2021/06/18 11:48:51;;;;;;;1.50;1.40;;;39.60;55.90;;;;;;5048445;28;20437;-80
2021/06/18 11:51:28;;;;;;;2.17;2.07;;;39.90;56.10;;;;;;5056616;28;20429;-79
2021/06/18 11:53:56;;;;;;;3.30;3.00;;;40.00;55.10;;;;;;5056032;28;20500;-79
2021/06/18 11:56:29;;;;;;;1.53;1.40;;;40.10;54.50;;;;;;5056993;28;20402;-79
2021/06/18 11:58:54;;;;;;;1.40;1.30;;;40.20;55.10;;;;;;5035923;28;20778;-78
2021/06/18 12:01:31;;;;;;;2.30;1.17;;;40.10;54.70;;;;;;5081932;28;20421;-80
2021/06/18 12:03:59;;;;;;;1.17;1.00;;;40.30;52.70;;;;;;5056985;28;20149;-79
2021/06/18 12:06:26;;;;;;;2.70;1.40;;;40.30;51.70;;;;;;5055900;28;20508;-79
2021/06/18 12:09:05;;;;;;;1.50;1.40;;;40.50;49.60;;;;;;5056123;28;20453;-78
2021/06/18 12:11:46;;;;;;;1.97;1.87;;;40.60;48.70;;;;;;5057124;28;20413;-78
2021/06/18 12:14:13;;;;;;;1.53;1.43;;;40.90;49.10;;;;;;5088663;28;20508;-79
2021/06/18 12:16:44;;;;;;;3.30;3.10;;;40.90;47.30;;;;;;5057541;28;20425;-81
2021/06/18 12:19:23;;;;;;;1.53;1.43;;;41.20;51.90;;;;;;5050829;28;20434;-78
2021/06/18 12:22:16;;;;;;;1.60;1.50;;;41.40;47.90;;;;;;5050178;28;20494;-78
2021/06/18 12:25:00;;;;;;;1.57;1.47;;;41.40;45.20;;;;;;5057702;28;20448;-79
2021/06/18 12:27:29;;;;;;;1.77;1.63;;;41.30;44.20;;;;;;5057880;28;20425;-79
2021/06/18 12:29:57;;;;;;;1.80;1.33;;;41.60;45.90;;;;;;5055505;28;20413;-79
2021/06/18 12:32:25;;;;;;;1.93;1.40;;;41.90;45.80;;;;;;5056930;28;21058;-80
2021/06/18 12:35:00;;;;;;;1.40;1.30;;;41.80;43.10;;;;;;5055304;28;20449;-80
2021/06/18 12:37:28;;;;;;;1.40;1.30;;;41.70;42.50;;;;;;5057852;28;20519;-79
2021/06/18 12:40:04;;;;;;;1.17;1.07;;;41.50;43.50;;;;;;5057202;28;20432;-79
2021/06/18 12:42:31;;;;;;;1.40;1.30;;;41.10;42.50;;;;;;5058149;28;20377;-80
2021/06/18 12:45:20;;;;;;;1.20;1.10;;;41.20;44.00;;;;;;5054123;28;20449;-79
2021/06/18 12:48:07;;;;;;;1.33;1.23;;;40.40;43.90;;;;;;5053115;28;20437;-80
2021/06/18 12:50:37;;;;;;;1.80;1.70;;;40.80;45.70;;;;;;5053953;28;20510;-78
2021/06/18 12:53:06;;;;;;;1.80;1.70;;;41.10;48.30;;;;;;5055454;28;20553;-78
2021/06/18 12:55:33;;;;;;;1.53;1.40;;;40.80;44.80;;;;;;5053812;28;20825;-78
2021/06/18 12:58:07;;;;;;;1.30;1.20;;;41.10;48.00;;;;;;5053339;28;20422;-80
2021/06/18 13:00:50;;;;;;;1.70;1.60;;;40.80;44.40;;;;;;5034681;28;20464;-78